createdAt,value
2023-02-01T00:00:58.009Z,100.00
2023-02-01T00:03:24.556Z,100.00
2023-02-01T00:05:58.321Z,100.00
2023-02-01T00:08:24.959Z,100.00
2023-02-01T00:10:58.849Z,100.00
2023-02-01T00:13:25.356Z,100.00
2023-02-01T00:15:51.847Z,100.00
2023-02-01T00:18:18.400Z,100.00
2023-02-01T00:20:48.074Z,100.00
2023-02-01T00:23:14.577Z,100.00
2023-02-01T00:25:41.112Z,100.00
2023-02-01T00:28:07.633Z,100.00
2023-02-01T00:30:34.211Z,100.00
2023-02-01T00:33:00.752Z,100.00
2023-02-01T00:35:27.235Z,100.00
2023-02-01T00:37:53.756Z,100.00
2023-02-01T00:40:20.646Z,100.00
2023-02-01T00:42:47.378Z,100.00
2023-02-01T00:45:13.929Z,100.00
2023-02-01T00:47:40.434Z,100.00
2023-02-01T00:53:38.361Z,100.00
2023-02-01T00:56:06.234Z,100.00
2023-02-01T00:58:33.435Z,100.00
2023-02-01T01:01:07.522Z,100.00
2023-02-01T01:03:35.116Z,100.00
2023-02-01T01:06:02.984Z,100.00
2023-02-01T01:08:29.520Z,100.00
2023-02-01T01:10:56.318Z,100.00
2023-02-01T01:13:22.852Z,100.00
2023-02-01T01:15:49.444Z,100.00
2023-02-01T01:18:16.099Z,100.00
2023-02-01T01:20:42.630Z,100.00
2023-02-01T01:23:09.822Z,100.00
2023-02-01T01:25:40.015Z,100.00
2023-02-01T01:28:07.138Z,100.00
2023-02-01T01:30:34.834Z,100.00
2023-02-01T01:33:01.583Z,100.00
2023-02-01T01:35:30.453Z,100.00
2023-02-01T01:37:56.966Z,100.00
2023-02-01T01:40:23.738Z,100.00
2023-02-01T01:42:54.356Z,100.00
2023-02-01T01:45:20.837Z,100.00
2023-02-01T01:47:49.543Z,100.00
2023-02-01T01:50:19.626Z,100.00
2023-02-01T01:52:50.058Z,100.00
2023-02-01T01:55:17.869Z,100.00
2023-02-01T01:57:47.818Z,100.00
2023-02-01T02:00:16.784Z,100.00
2023-02-01T02:02:45.885Z,100.00
2023-02-01T02:05:13.088Z,100.00
2023-02-01T02:07:42.821Z,100.00
2023-02-01T02:10:13.831Z,100.00
2023-02-01T02:12:42.097Z,100.00
2023-02-01T02:15:13.037Z,100.00
2023-02-01T02:17:58.101Z,100.00
2023-02-01T02:20:27.721Z,100.00
2023-02-01T02:23:03.497Z,100.00
2023-02-01T02:25:43.758Z,100.00
2023-02-01T02:28:19.757Z,100.00
2023-02-01T02:30:46.262Z,100.00
2023-02-01T02:33:21.858Z,100.00
2023-02-01T02:35:48.365Z,100.00
2023-02-01T02:38:14.826Z,100.00
2023-02-01T02:40:53.513Z,100.00
2023-02-01T02:43:41.228Z,100.00
2023-02-01T02:46:41.940Z,100.00
2023-02-01T02:49:31.744Z,100.00
2023-02-01T02:52:21.400Z,100.00
2023-02-01T02:54:49.989Z,100.00
2023-02-01T02:57:41.397Z,100.00
2023-02-01T03:00:30.305Z,100.00
2023-02-01T03:03:15.298Z,100.00
2023-02-01T03:05:43.340Z,100.00
2023-02-01T03:08:14.526Z,100.00
2023-02-01T03:10:56.277Z,100.00
2023-02-01T03:13:34.823Z,100.00
2023-02-01T03:16:07.349Z,100.00
2023-02-01T03:18:37.047Z,100.00
2023-02-01T03:21:06.704Z,100.00
2023-02-01T03:23:35.628Z,100.00
2023-02-01T03:26:02.885Z,100.00
2023-02-01T03:28:32.169Z,100.00
2023-02-01T03:30:59.509Z,100.00
2023-02-01T03:33:27.563Z,100.00
2023-02-01T03:35:57.170Z,100.00
2023-02-01T03:38:38.796Z,100.00
2023-02-01T03:41:08.174Z,100.00
2023-02-01T03:43:38.133Z,100.00
2023-02-01T03:46:07.898Z,100.00
2023-02-01T03:48:36.858Z,100.00
2023-02-01T03:51:05.454Z,94.59
2023-02-01T03:53:32.433Z,94.90
2023-02-01T03:55:59.440Z,92.16
2023-02-01T03:58:26.026Z,89.65
2023-02-01T04:00:55.215Z,93.33
2023-02-01T04:03:22.814Z,86.48
2023-02-01T04:05:53.319Z,83.47
2023-02-01T04:08:23.604Z,81.30
2023-02-01T04:10:50.159Z,79.65
2023-02-01T04:13:16.761Z,81.69
2023-02-01T04:15:43.320Z,85.51
2023-02-01T04:18:09.899Z,83.63
2023-02-01T04:20:36.413Z,79.42
2023-02-01T04:23:03.650Z,78.18
2023-02-01T04:25:30.695Z,78.62
2023-02-01T04:27:57.199Z,82.45
2023-02-01T04:30:25.371Z,85.56
2023-02-01T04:32:52.097Z,82.82
2023-02-01T04:35:18.924Z,89.60
2023-02-01T04:37:45.495Z,88.17
2023-02-01T04:40:12.230Z,84.59
2023-02-01T04:42:38.723Z,84.44
2023-02-01T04:45:05.655Z,90.23
2023-02-01T04:47:32.161Z,87.89
2023-02-01T04:49:58.672Z,90.25
2023-02-01T04:52:25.203Z,91.27
2023-02-01T04:54:51.707Z,90.17
2023-02-01T04:57:18.275Z,90.55
2023-02-01T04:59:44.783Z,94.80
2023-02-01T05:02:11.272Z,95.74
2023-02-01T05:04:37.842Z,95.21
2023-02-01T05:07:04.424Z,96.42
2023-02-01T05:09:31.041Z,98.37
2023-02-01T05:12:16.342Z,100.00
2023-02-01T05:14:42.824Z,100.00
2023-02-01T05:17:09.379Z,100.00
2023-02-01T05:19:35.958Z,100.00
2023-02-01T05:22:02.590Z,100.00
2023-02-01T05:24:29.116Z,100.00
2023-02-01T05:26:55.619Z,100.00
2023-02-01T05:29:22.242Z,100.00
2023-02-01T05:31:49.156Z,100.00
2023-02-01T05:34:16.366Z,100.00
2023-02-01T05:36:43.160Z,100.00
2023-02-01T05:39:09.700Z,100.00
2023-02-01T05:41:36.254Z,100.00
2023-02-01T05:44:03.727Z,100.00
2023-02-01T05:46:30.293Z,100.00
2023-02-01T05:48:56.888Z,100.00
2023-02-01T05:51:23.467Z,100.00
2023-02-01T05:53:50.011Z,100.00
2023-02-01T05:56:16.523Z,100.00
2023-02-01T05:58:43.016Z,100.00
2023-02-01T06:01:09.567Z,100.00
2023-02-01T06:03:36.607Z,100.00
2023-02-01T06:06:03.226Z,100.00
2023-02-01T06:08:29.830Z,100.00
2023-02-01T06:11:03.362Z,100.00
2023-02-01T06:13:29.944Z,100.00
2023-02-01T06:15:58.118Z,100.00
2023-02-01T06:18:25.577Z,100.00
2023-02-01T06:20:55.918Z,100.00
2023-02-01T06:23:24.787Z,100.00
2023-02-01T06:25:52.483Z,100.00
2023-02-01T06:28:19.054Z,100.00
2023-02-01T06:30:47.165Z,100.00
2023-02-01T06:33:16.162Z,100.00
2023-02-01T06:35:45.251Z,100.00
2023-02-01T06:38:12.581Z,100.00
2023-02-01T06:40:39.474Z,100.00
2023-02-01T06:43:06.006Z,100.00
2023-02-01T06:45:32.503Z,100.00
2023-02-01T06:47:59.635Z,100.00
2023-02-01T06:50:26.191Z,100.00
2023-02-01T06:52:52.669Z,100.00
2023-02-01T06:55:19.246Z,100.00
2023-02-01T06:57:45.782Z,100.00
2023-02-01T07:00:12.512Z,100.00
2023-02-01T07:02:40.000Z,100.00
2023-02-01T07:05:06.622Z,100.00
2023-02-01T07:07:33.231Z,100.00
2023-02-01T07:09:59.830Z,100.00
2023-02-01T07:12:26.410Z,100.00
2023-02-01T07:14:52.969Z,100.00
2023-02-01T07:17:19.469Z,100.00
2023-02-01T07:19:45.938Z,100.00
2023-02-01T07:22:12.498Z,100.00
2023-02-01T07:24:38.993Z,100.00
2023-02-01T07:38:36.763Z,98.17
2023-02-01T07:41:05.882Z,99.69
2023-02-01T07:43:34.451Z,100.00
2023-02-01T07:46:02.148Z,100.00
2023-02-01T07:48:29.502Z,97.92
2023-02-01T07:51:04.723Z,97.84
2023-02-01T07:53:33.598Z,94.76
2023-02-01T07:56:00.512Z,96.64
2023-02-01T07:58:28.086Z,95.69
2023-02-01T08:01:14.319Z,94.56
2023-02-01T08:03:41.326Z,90.94
2023-02-01T08:06:08.352Z,90.06
2023-02-01T08:08:35.269Z,90.20
2023-02-01T08:11:04.109Z,88.43
2023-02-01T08:13:31.035Z,90.46
2023-02-01T08:16:02.052Z,87.45
2023-02-01T08:18:29.265Z,86.44
2023-02-01T08:20:55.983Z,88.90
2023-02-01T08:23:23.346Z,87.53
2023-02-01T08:25:50.053Z,86.12
2023-02-01T08:28:17.049Z,86.81
2023-02-01T08:30:43.968Z,84.26
2023-02-01T08:33:10.896Z,85.28
2023-02-01T08:35:43.663Z,86.85
2023-02-01T08:38:11.073Z,88.78
2023-02-01T08:40:37.815Z,85.74
2023-02-01T08:43:04.573Z,87.79
2023-02-01T08:45:31.374Z,89.90
2023-02-01T08:47:58.348Z,85.81
2023-02-01T08:50:26.445Z,89.61
2023-02-01T08:52:54.102Z,85.76
2023-02-01T08:55:21.089Z,85.68
2023-02-01T08:57:47.988Z,84.82
2023-02-01T09:00:17.070Z,85.33
2023-02-01T09:02:44.220Z,85.21
2023-02-01T09:05:11.869Z,87.09
2023-02-01T09:07:39.332Z,85.77
2023-02-01T09:10:06.398Z,86.35
2023-02-01T09:12:34.591Z,86.43
2023-02-01T09:15:01.637Z,82.21
2023-02-01T09:17:30.588Z,80.07
2023-02-01T09:19:57.705Z,80.62
2023-02-01T09:22:24.433Z,82.15
2023-02-01T09:24:55.134Z,75.88
2023-02-01T09:27:22.840Z,72.87
2023-02-01T09:29:53.858Z,75.51
2023-02-01T09:32:24.541Z,73.54
2023-02-01T09:34:52.998Z,67.08
2023-02-01T09:37:20.634Z,63.04
2023-02-01T09:39:47.329Z,67.77
2023-02-01T09:42:16.867Z,66.74
2023-02-01T09:45:18.708Z,60.88
2023-02-01T09:47:53.301Z,58.71
2023-02-01T09:50:24.655Z,56.05
2023-02-01T09:52:58.780Z,54.95
2023-02-01T09:55:47.613Z,55.68
2023-02-01T09:58:20.308Z,56.19
2023-02-01T10:00:54.968Z,54.34
2023-02-01T10:03:24.598Z,53.32
2023-02-01T10:06:31.113Z,50.79
2023-02-01T10:09:42.691Z,55.10
2023-02-01T10:12:35.292Z,52.39
2023-02-01T10:15:34.100Z,54.03
2023-02-01T10:18:03.584Z,50.54
2023-02-01T10:20:30.128Z,53.46
2023-02-01T10:23:31.223Z,53.02
2023-02-01T10:26:17.793Z,49.75
2023-02-01T10:28:47.457Z,49.77
2023-02-01T10:31:15.157Z,50.64
2023-02-01T10:33:52.581Z,51.92
2023-02-01T10:36:45.403Z,52.55
2023-02-01T10:39:15.607Z,48.00
2023-02-01T10:41:44.020Z,52.45
2023-02-01T10:44:21.311Z,50.03
2023-02-01T10:46:47.939Z,45.95
2023-02-01T10:49:23.762Z,46.70
2023-02-01T10:52:12.018Z,48.80
2023-02-01T10:54:40.221Z,46.80
2023-02-01T10:57:20.377Z,46.63
2023-02-01T10:59:47.137Z,49.32
2023-02-01T11:02:35.690Z,57.22
2023-02-01T11:05:13.376Z,49.82
2023-02-01T11:07:47.327Z,47.88
2023-02-01T11:10:40.246Z,47.98
2023-02-01T11:13:12.716Z,48.79
2023-02-01T11:15:43.794Z,44.19
2023-02-01T11:18:20.056Z,46.13
2023-02-01T11:20:53.104Z,43.95
2023-02-01T11:23:24.284Z,44.88
2023-02-01T11:25:59.994Z,44.45
2023-02-01T11:28:33.649Z,42.99
2023-02-01T11:31:04.988Z,42.31
2023-02-01T11:33:36.312Z,46.57
2023-02-01T11:36:18.086Z,45.94
2023-02-01T11:39:10.076Z,42.56
2023-02-01T11:41:45.358Z,42.55
2023-02-01T11:44:27.837Z,42.41
2023-02-01T11:46:54.620Z,41.71
2023-02-01T11:49:27.931Z,42.30
2023-02-01T11:52:25.608Z,41.34
2023-02-01T11:55:14.084Z,40.40
2023-02-01T11:58:19.443Z,43.21
2023-02-01T12:01:06.321Z,45.11
2023-02-01T12:03:51.557Z,45.45
2023-02-01T12:06:36.293Z,43.37
2023-02-01T12:09:21.472Z,41.40
2023-02-01T12:12:06.844Z,42.54
2023-02-01T12:15:13.579Z,43.50
2023-02-01T12:17:52.605Z,46.93
2023-02-01T12:20:57.988Z,42.78
2023-02-01T12:23:39.758Z,42.93
2023-02-01T12:26:35.815Z,42.84
2023-02-01T12:29:06.471Z,42.15
2023-02-01T12:32:00.932Z,41.99
2023-02-01T12:34:33.436Z,42.23
2023-02-01T12:37:32.767Z,42.30
2023-02-01T12:40:07.691Z,42.05
2023-02-01T12:42:41.924Z,43.19
2023-02-01T12:45:13.973Z,43.06
2023-02-01T12:47:52.453Z,43.18
2023-02-01T12:50:34.732Z,43.50
2023-02-01T12:53:22.994Z,46.24
2023-02-01T12:55:54.642Z,44.98
2023-02-01T12:58:47.912Z,45.82
2023-02-01T13:01:23.675Z,46.33
2023-02-01T13:04:25.132Z,45.19
2023-02-01T13:06:58.579Z,44.00
2023-02-01T13:10:03.337Z,44.00
2023-02-01T13:12:37.650Z,43.91
2023-02-01T13:16:33.789Z,44.59
2023-02-01T13:19:14.251Z,45.50
2023-02-01T13:21:46.848Z,44.39
2023-02-01T13:24:31.922Z,43.97
2023-02-01T13:26:58.731Z,44.32
2023-02-01T13:33:51.190Z,46.97
2023-02-01T13:35:38.440Z,47.47
2023-02-01T13:38:11.093Z,47.70
2023-02-01T13:40:40.751Z,48.62
2023-02-01T13:43:29.433Z,49.48
2023-02-01T13:46:03.625Z,49.60
2023-02-01T13:48:39.478Z,50.34
2023-02-01T13:51:06.856Z,49.21
2023-02-01T13:53:38.085Z,50.81
2023-02-01T13:56:12.497Z,51.35
2023-02-01T13:58:42.414Z,49.89
2023-02-01T14:01:24.443Z,49.87
2023-02-01T14:03:56.377Z,49.44
2023-02-01T14:06:28.855Z,49.83
2023-02-01T14:09:14.149Z,48.17
2023-02-01T14:11:58.911Z,49.35
2023-02-01T14:14:25.608Z,48.68
2023-02-01T14:16:55.319Z,48.99
2023-02-01T14:19:32.807Z,48.60
2023-02-01T14:23:20.161Z,48.02
2023-02-01T14:25:58.564Z,48.30
2023-02-01T14:28:29.257Z,48.16
2023-02-01T14:30:59.188Z,48.55
2023-02-01T14:33:29.166Z,50.00
2023-02-01T14:36:07.246Z,51.22
2023-02-01T14:38:36.567Z,49.09
2023-02-01T14:41:36.296Z,49.28
2023-02-01T14:44:03.119Z,49.39
2023-02-01T14:47:11.516Z,49.77
2023-02-01T14:49:55.208Z,49.26
2023-02-01T14:52:29.559Z,49.01
2023-02-01T14:55:40.028Z,48.93
2023-02-01T14:58:13.449Z,50.01
2023-02-01T15:00:53.269Z,51.06
2023-02-01T15:03:56.051Z,50.27
2023-02-01T15:06:34.034Z,51.71
2023-02-01T15:09:17.993Z,51.07
2023-02-01T15:12:00.804Z,51.28
2023-02-01T15:14:29.614Z,52.28
2023-02-01T15:16:56.384Z,51.36
2023-02-01T15:19:25.979Z,52.39
2023-02-01T15:21:55.931Z,52.67
2023-02-01T15:24:32.733Z,57.66
2023-02-01T15:27:07.256Z,55.95
2023-02-01T15:29:34.525Z,56.97
2023-02-01T15:32:02.035Z,59.01
2023-02-01T15:34:50.737Z,58.98
2023-02-01T15:37:19.620Z,59.51
2023-02-01T15:40:11.614Z,59.78
2023-02-01T15:42:53.678Z,58.49
2023-02-01T15:45:23.866Z,53.47
2023-02-01T15:47:53.362Z,54.39
2023-02-01T15:50:23.294Z,51.68
2023-02-01T15:52:53.801Z,54.28
2023-02-01T15:55:43.939Z,56.27
2023-02-01T15:58:19.160Z,58.86
2023-02-01T16:01:08.012Z,59.90
2023-02-01T16:03:39.151Z,60.27
2023-02-01T16:06:09.654Z,63.34
2023-02-01T16:08:38.086Z,56.47
2023-02-01T16:11:10.818Z,54.09
2023-02-01T16:13:37.497Z,59.22
2023-02-01T16:16:09.053Z,61.92
2023-02-01T16:18:35.961Z,57.80
2023-02-01T16:21:02.995Z,59.21
2023-02-01T16:23:32.302Z,58.14
2023-02-01T16:28:35.278Z,64.13
2023-02-01T16:33:03.725Z,58.97
2023-02-01T16:35:36.801Z,59.91
2023-02-01T16:38:09.768Z,59.53
2023-02-01T16:40:36.933Z,59.56
2023-02-01T16:43:09.411Z,58.23
2023-02-01T16:45:37.525Z,60.73
2023-02-01T16:48:05.813Z,63.86
2023-02-01T16:50:34.169Z,64.85
2023-02-01T16:53:02.845Z,65.59
2023-02-01T16:55:30.337Z,67.59
2023-02-01T16:57:57.041Z,70.59
2023-02-01T17:00:26.274Z,70.51
2023-02-01T17:02:54.261Z,66.53
2023-02-01T17:05:21.356Z,71.47
2023-02-01T17:07:48.450Z,72.62
2023-02-01T17:10:33.938Z,69.26
2023-02-01T17:13:01.945Z,71.33
2023-02-01T17:15:35.136Z,72.40
2023-02-01T17:18:03.042Z,73.36
2023-02-01T17:20:33.117Z,73.77
2023-02-01T17:23:00.160Z,75.79
2023-02-01T17:25:29.095Z,75.48
2023-02-01T17:30:32.114Z,77.21
2023-02-01T17:32:59.375Z,75.11
2023-02-01T17:35:29.372Z,77.13
2023-02-01T17:37:56.279Z,77.15
2023-02-01T17:40:23.323Z,78.84
2023-02-01T17:42:52.272Z,80.52
2023-02-01T17:45:42.166Z,79.52
2023-02-01T17:48:09.128Z,79.82
2023-02-01T17:50:37.912Z,81.68
2023-02-01T17:53:06.225Z,81.79
2023-02-01T17:55:35.509Z,82.00
2023-02-01T17:58:02.202Z,82.52
2023-02-01T18:00:29.012Z,82.56
2023-02-01T18:02:57.262Z,82.31
2023-02-01T18:05:26.714Z,81.47
2023-02-01T18:07:53.458Z,82.80
2023-02-01T18:10:20.166Z,83.84
2023-02-01T18:12:47.245Z,83.59
2023-02-01T18:15:22.316Z,81.84
2023-02-01T18:17:49.846Z,79.90
2023-02-01T18:20:19.153Z,80.34
2023-02-01T18:22:48.743Z,79.58
2023-02-01T18:25:24.333Z,81.55
2023-02-01T18:27:53.414Z,79.56
2023-02-01T18:30:31.570Z,80.16
2023-02-01T18:32:58.558Z,76.73
2023-02-01T18:38:03.276Z,79.66
2023-02-01T18:40:40.462Z,79.76
2023-02-01T18:43:07.166Z,79.53
2023-02-01T18:45:42.412Z,80.34
2023-02-01T18:50:08.398Z,78.95
2023-02-01T18:52:35.095Z,81.32
2023-02-01T18:55:01.731Z,81.33
2023-02-01T18:57:28.452Z,79.69
2023-02-01T18:59:55.521Z,72.99
2023-02-01T19:02:22.385Z,71.37
2023-02-01T19:04:49.167Z,70.21
2023-02-01T19:07:15.991Z,76.11
2023-02-01T19:09:42.938Z,75.51
2023-02-01T19:12:09.689Z,76.78
2023-02-01T19:14:36.371Z,73.71
2023-02-01T19:17:03.051Z,73.44
2023-02-01T19:19:29.779Z,75.70
2023-02-01T19:21:56.515Z,75.38
2023-02-01T19:24:28.014Z,74.36
2023-02-01T19:26:55.171Z,77.56
2023-02-01T19:29:21.919Z,77.75
2023-02-01T19:31:48.687Z,77.22
2023-02-01T19:34:15.960Z,78.06
2023-02-01T19:36:43.847Z,78.72
2023-02-01T19:39:10.599Z,79.54
2023-02-01T19:41:37.278Z,80.99
2023-02-01T19:44:04.540Z,80.06
2023-02-01T19:46:31.647Z,79.66
2023-02-01T19:48:58.331Z,80.39
2023-02-01T19:51:25.077Z,81.61
2023-02-01T19:53:51.807Z,82.81
2023-02-01T19:56:18.558Z,83.02
2023-02-01T19:58:45.371Z,85.05
2023-02-01T20:01:12.820Z,85.99
2023-02-01T20:03:39.546Z,86.53
2023-02-01T20:06:07.551Z,87.94
2023-02-01T20:08:34.274Z,87.85
2023-02-01T20:11:01.262Z,88.36
2023-02-01T20:13:27.878Z,91.10
2023-02-01T20:15:59.619Z,88.90
2023-02-01T20:18:27.310Z,88.96
2023-02-01T20:20:58.529Z,89.99
2023-02-01T20:23:25.827Z,89.22
2023-02-01T20:25:53.492Z,90.15
2023-02-01T20:28:20.278Z,90.48
2023-02-01T20:30:47.233Z,92.61
2023-02-01T20:33:14.011Z,92.21
2023-02-01T20:35:45.289Z,91.80
2023-02-01T20:38:11.995Z,93.75
2023-02-01T20:40:38.657Z,93.62
2023-02-01T20:43:05.388Z,90.83
2023-02-01T20:45:32.030Z,91.93
2023-02-01T20:47:58.725Z,93.60
2023-02-01T20:52:13.342Z,86.62
2023-02-01T20:57:19.366Z,90.11
2023-02-01T20:59:47.279Z,89.33
2023-02-01T21:02:14.967Z,86.26
2023-02-01T21:04:41.803Z,84.56
2023-02-01T21:07:08.645Z,85.91
2023-02-01T21:09:35.449Z,87.74
2023-02-01T21:12:02.353Z,89.34
2023-02-01T21:14:29.260Z,86.48
2023-02-01T21:16:56.048Z,86.16
2023-02-01T21:19:27.310Z,85.57
2023-02-01T21:21:54.233Z,86.21
2023-02-01T21:24:20.958Z,81.04
2023-02-01T21:26:47.713Z,81.99
2023-02-01T21:31:57.000Z,82.21
2023-02-01T21:34:23.818Z,76.65
2023-02-01T21:36:50.482Z,73.52
2023-02-01T21:39:17.840Z,77.39
2023-02-01T21:43:31.757Z,77.60
2023-02-01T21:45:58.449Z,72.85
2023-02-01T21:48:25.213Z,75.74
2023-02-01T21:50:51.975Z,75.56
2023-02-01T21:53:18.662Z,74.05
2023-02-01T21:55:45.378Z,75.65
2023-02-01T21:58:14.927Z,70.69
2023-02-01T22:01:32.386Z,70.52
2023-02-01T22:03:59.064Z,72.25
2023-02-01T22:06:28.437Z,71.57
2023-02-01T22:08:55.526Z,70.53
2023-02-01T22:11:22.630Z,69.67
2023-02-01T22:13:49.640Z,71.13
2023-02-01T22:16:18.289Z,69.92
2023-02-01T22:18:47.131Z,68.15
2023-02-01T22:21:14.598Z,68.35
2023-02-01T22:23:41.360Z,68.75
2023-02-01T22:26:10.503Z,67.88
2023-02-01T22:31:17.781Z,70.46
2023-02-01T22:33:49.314Z,67.39
2023-02-01T22:36:17.205Z,69.43
2023-02-01T22:41:20.947Z,68.40
2023-02-01T22:43:47.998Z,70.10
2023-02-01T22:46:19.279Z,72.44
2023-02-01T22:48:47.342Z,72.30
2023-02-01T22:51:18.334Z,69.97
2023-02-01T22:53:45.653Z,70.59
2023-02-01T22:56:14.051Z,71.19
2023-02-01T22:58:40.936Z,71.87
2023-02-01T23:01:09.567Z,71.28
2023-02-01T23:03:37.303Z,73.14
2023-02-01T23:06:05.343Z,74.49
2023-02-01T23:08:35.370Z,73.42
2023-02-01T23:11:05.772Z,76.81
2023-02-01T23:13:33.784Z,77.06
2023-02-01T23:16:05.902Z,78.15
2023-02-01T23:18:32.713Z,78.02
2023-02-01T23:21:05.291Z,78.33
2023-02-01T23:23:32.116Z,78.46
2023-02-01T23:25:58.845Z,81.08
2023-02-01T23:28:27.206Z,77.88
2023-02-01T23:30:54.221Z,80.21
2023-02-01T23:33:25.455Z,83.85
2023-02-01T23:36:00.010Z,83.21
2023-02-01T23:38:27.655Z,85.09
2023-02-01T23:40:58.926Z,84.16
2023-02-01T23:43:44.409Z,83.89
2023-02-01T23:46:11.499Z,84.05
2023-02-01T23:48:38.569Z,84.32
2023-02-01T23:51:05.799Z,83.88
2023-02-01T23:53:32.440Z,84.01
2023-02-01T23:55:59.317Z,84.46
2023-02-01T23:58:26.299Z,84.78
